createdAt,value
2016-12-01T00:00:25.396Z,1020.17
2016-12-01T00:01:41.555Z,1020.16
2016-12-01T00:02:57.806Z,1020.12
2016-12-01T00:04:14.944Z,1020.14
2016-12-01T00:05:30.991Z,1020.16
2016-12-01T00:06:44.592Z,1020.09
2016-12-01T00:07:59.392Z,1020.08
2016-12-01T00:09:14.522Z,1020.14
2016-12-01T00:10:30.873Z,1020.13
2016-12-01T00:11:45.984Z,1020.13
2016-12-01T00:13:01.231Z,1020.09
2016-12-01T00:14:16.273Z,1020.15
2016-12-01T00:15:33.018Z,1020.15
2016-12-01T00:16:47.611Z,1020.16
2016-12-01T00:18:04.737Z,1020.09
2016-12-01T00:19:20.883Z,1020.13
2016-12-01T00:20:36.734Z,1020.15
2016-12-01T00:21:50.265Z,1020.11
2016-12-01T00:23:04.035Z,1020.08
2016-12-01T00:24:17.495Z,1020.04
2016-12-01T00:25:33.873Z,1020.05
2016-12-01T00:26:48.478Z,1020.08
2016-12-01T00:28:03.345Z,1020.1
2016-12-01T00:29:19.234Z,1020.06
2016-12-01T00:30:35.523Z,1020.05
2016-12-01T00:31:48.652Z,1020
2016-12-01T00:33:05.349Z,1020.07
2016-12-01T00:34:21.736Z,1020.07
2016-12-01T00:35:38.049Z,1020.09
2016-12-01T00:36:54.221Z,1020.06
2016-12-01T00:38:08.853Z,1020.05
2016-12-01T00:39:21.028Z,1019.97
2016-12-01T00:40:34.926Z,1019.94
2016-12-01T00:41:49.987Z,1020
2016-12-01T00:43:04.736Z,1020.05
2016-12-01T00:44:19.462Z,1020
2016-12-01T00:45:33.979Z,1020.05
2016-12-01T00:46:50.069Z,1020.03
2016-12-01T00:48:06.242Z,1020.06
2016-12-01T00:49:22.283Z,1020.03
2016-12-01T00:50:37.300Z,1019.94
2016-12-01T00:51:51.105Z,1019.89
2016-12-01T00:53:07.276Z,1019.87
2016-12-01T00:54:23.665Z,1019.86
2016-12-01T00:55:39.817Z,1019.91
2016-12-01T00:56:54.723Z,1019.85
2016-12-01T00:58:09.250Z,1019.85
2016-12-01T00:59:25.002Z,1019.86
2016-12-01T01:00:41.144Z,1019.84
2016-12-01T01:01:56.239Z,1019.87
2016-12-01T01:03:10.642Z,1019.9
2016-12-01T01:04:25.170Z,1019.9
2016-12-01T01:05:38.367Z,1019.91
2016-12-01T01:06:54.104Z,1019.84
2016-12-01T01:08:10.010Z,1019.79
2016-12-01T01:09:25.506Z,1019.77
2016-12-01T01:10:41.878Z,1019.82
2016-12-01T01:11:58.181Z,1019.84
2016-12-01T01:13:12.842Z,1019.79
2016-12-01T01:14:27.933Z,1019.82
2016-12-01T01:15:43.598Z,1019.81
2016-12-01T01:16:57.629Z,1019.76
2016-12-01T01:18:12.324Z,1019.78
2016-12-01T01:19:28.683Z,1019.75
2016-12-01T01:20:42.195Z,1019.7
2016-12-01T01:21:58.658Z,1019.72
2016-12-01T01:23:13.902Z,1019.79
2016-12-01T01:24:26.863Z,1019.8
2016-12-01T01:25:43.697Z,1019.85
2016-12-01T01:26:58.518Z,1019.76
2016-12-01T01:28:12.732Z,1019.72
2016-12-01T01:29:26.245Z,1019.71
2016-12-01T01:30:41.910Z,1019.72
2016-12-01T01:31:58.497Z,1019.72
2016-12-01T01:33:14.138Z,1019.69
2016-12-01T01:34:30.442Z,1019.6
2016-12-01T01:35:45.856Z,1019.67
2016-12-01T01:36:59.088Z,1019.67
2016-12-01T01:38:15.252Z,1019.73
2016-12-01T01:39:31.153Z,1019.86
2016-12-01T01:40:47.398Z,1019.86
2016-12-01T01:42:02.580Z,1019.89
2016-12-01T01:43:19.193Z,1019.83
2016-12-01T01:44:35.390Z,1019.86
2016-12-01T01:45:50.927Z,1019.86
2016-12-01T01:47:05.356Z,1019.87
2016-12-01T01:48:19.205Z,1019.85
2016-12-01T01:49:32.422Z,1019.83
2016-12-01T01:50:48.974Z,1019.9
2016-12-01T01:52:05.265Z,1019.95
2016-12-01T01:53:16.904Z,1019.9
2016-12-01T01:54:31.864Z,1019.88
2016-12-01T01:55:46.340Z,1019.79
2016-12-01T01:57:02.387Z,1019.71
2016-12-01T01:58:18.560Z,1019.65
2016-12-01T01:59:34.047Z,1019.68
2016-12-01T02:00:49.932Z,1019.6
2016-12-01T02:02:05.281Z,1019.58
2016-12-01T02:03:20.784Z,1019.61
2016-12-01T02:04:37.092Z,1019.62
2016-12-01T02:05:52.663Z,1019.55
2016-12-01T02:07:09.151Z,1019.55
2016-12-01T02:08:23.204Z,1019.58
2016-12-01T02:09:38.854Z,1019.55
2016-12-01T02:10:54.518Z,1019.47
2016-12-01T02:12:09.119Z,1019.46
2016-12-01T02:13:20.977Z,1019.4
2016-12-01T02:14:35.627Z,1019.38
2016-12-01T02:15:51.798Z,1019.44
2016-12-01T02:17:07.866Z,1019.46
2016-12-01T02:18:23.914Z,1019.51
2016-12-01T02:19:36.683Z,1019.48
2016-12-01T02:20:52.871Z,1019.45
2016-12-01T02:22:08.922Z,1019.41
2016-12-01T02:23:23.240Z,1019.42
2016-12-01T02:24:35.140Z,1019.38
2016-12-01T02:25:50.075Z,1019.41
2016-12-01T02:27:04.658Z,1019.37
2016-12-01T02:28:19.485Z,1019.38
2016-12-01T02:29:34.317Z,1019.38
2016-12-01T02:30:50.389Z,1019.46
2016-12-01T02:32:05.646Z,1019.46
2016-12-01T02:33:20.945Z,1019.41
2016-12-01T02:34:32.925Z,1019.37
2016-12-01T02:35:47.698Z,1019.37
2016-12-01T02:37:00.753Z,1019.33
2016-12-01T02:38:15.507Z,1019.33
2016-12-01T02:39:30.263Z,1019.33
2016-12-01T02:40:46.192Z,1019.24
2016-12-01T02:42:02.257Z,1019.22
2016-12-01T02:43:18.742Z,1019.15
2016-12-01T02:44:33.428Z,1019.18
2016-12-01T02:45:48.124Z,1019.19
2016-12-01T02:47:02.651Z,1019.17
2016-12-01T02:48:16.268Z,1019.16
2016-12-01T02:49:32.469Z,1019.15
2016-12-01T02:50:45.934Z,1019.15
2016-12-01T02:52:00.800Z,1019.15
2016-12-01T02:53:14.241Z,1019.12
2016-12-01T02:54:29.080Z,1019.08
2016-12-01T02:55:42.080Z,1019.04
2016-12-01T02:56:57.893Z,1019.1
2016-12-01T02:58:14.667Z,1019.06
2016-12-01T02:59:29.847Z,1019.12
2016-12-01T03:00:46.591Z,1019.16
2016-12-01T03:02:02.480Z,1019.13
2016-12-01T03:03:15.620Z,1019.09
2016-12-01T03:04:29.094Z,1019.15
2016-12-01T03:05:44.724Z,1019.05
2016-12-01T03:07:00.542Z,1019.05
2016-12-01T03:08:16.261Z,1019.04
2016-12-01T03:09:32.905Z,1018.96
2016-12-01T03:10:47.144Z,1018.95
2016-12-01T03:12:01.733Z,1019.02
2016-12-01T03:13:16.328Z,1019.02
2016-12-01T03:14:32.564Z,1019.02
2016-12-01T03:15:45.146Z,1019.02
2016-12-01T03:16:59.216Z,1018.98
2016-12-01T03:18:12.262Z,1018.99
2016-12-01T03:19:28.801Z,1018.99
2016-12-01T03:20:42.183Z,1018.95
2016-12-01T03:21:58.616Z,1018.94
2016-12-01T03:23:13.305Z,1018.92
2016-12-01T03:24:26.144Z,1018.92
2016-12-01T03:25:37.970Z,1018.88
2016-12-01T03:26:53.743Z,1018.86
2016-12-01T03:28:08.022Z,1018.89
2016-12-01T03:29:23.987Z,1018.87
2016-12-01T03:30:40.581Z,1018.85
2016-12-01T03:31:53.752Z,1018.86
2016-12-01T03:33:07.135Z,1018.82
2016-12-01T03:34:20.598Z,1018.84
2016-12-01T03:35:36.697Z,1018.79
2016-12-01T03:36:49.909Z,1018.84
2016-12-01T03:38:03.369Z,1018.81
2016-12-01T03:39:19.669Z,1018.82
2016-12-01T03:40:31.827Z,1018.82
2016-12-01T03:41:47.776Z,1018.89
2016-12-01T03:43:03.432Z,1018.86
2016-12-01T03:44:18.689Z,1018.84
2016-12-01T03:45:33.135Z,1018.81
2016-12-01T03:46:47.420Z,1018.77
2016-12-01T03:48:03.407Z,1018.79
2016-12-01T03:49:19.131Z,1018.84
2016-12-01T03:50:35.131Z,1018.83
2016-12-01T03:51:50.381Z,1018.84
2016-12-01T03:53:06.443Z,1018.88
2016-12-01T03:54:20.302Z,1018.84
2016-12-01T03:55:36.640Z,1018.85
2016-12-01T03:56:50.240Z,1018.85
2016-12-01T03:58:06.157Z,1018.83
2016-12-01T03:59:19.792Z,1018.82
2016-12-01T04:00:35.785Z,1018.84
2016-12-01T04:01:50.215Z,1018.77
2016-12-01T04:03:06.807Z,1018.78
2016-12-01T04:04:21.208Z,1018.74
2016-12-01T04:05:37.527Z,1018.74
2016-12-01T04:06:53.431Z,1018.76
2016-12-01T04:08:07.743Z,1018.65
2016-12-01T04:09:23.748Z,1018.67
2016-12-01T04:10:36.903Z,1018.66
2016-12-01T04:11:52.156Z,1018.71
2016-12-01T04:13:06.595Z,1018.71
2016-12-01T04:14:21.555Z,1018.71
2016-12-01T04:15:37.489Z,1018.68
2016-12-01T04:16:50.521Z,1018.66
2016-12-01T04:18:03.783Z,1018.69
2016-12-01T04:19:20.130Z,1018.69
2016-12-01T04:20:32.859Z,1018.66
2016-12-01T04:21:46.144Z,1018.65
2016-12-01T04:23:02.710Z,1018.7
2016-12-01T04:24:19.001Z,1018.64
2016-12-01T04:25:35.287Z,1018.71
2016-12-01T04:26:49.557Z,1018.61
2016-12-01T04:28:02.300Z,1018.61
2016-12-01T04:29:15.974Z,1018.62
2016-12-01T04:30:31.545Z,1018.76
2016-12-01T04:31:46.172Z,1018.72
2016-12-01T04:33:00.620Z,1018.71
2016-12-01T04:34:15.626Z,1018.7
2016-12-01T04:35:28.844Z,1018.63
2016-12-01T04:36:42.121Z,1018.66
2016-12-01T04:37:56.875Z,1018.71
2016-12-01T04:39:11.822Z,1018.67
2016-12-01T04:40:26.896Z,1018.61
2016-12-01T04:41:40.038Z,1018.62
2016-12-01T04:42:56.001Z,1018.55
2016-12-01T04:44:10.890Z,1018.5
2016-12-01T04:45:27.506Z,1018.53
2016-12-01T04:46:42.864Z,1018.47
2016-12-01T04:47:58.537Z,1018.44
2016-12-01T04:49:14.554Z,1018.43
2016-12-01T04:50:30.590Z,1018.44
2016-12-01T04:51:46.633Z,1018.43
2016-12-01T04:53:02.542Z,1018.34
2016-12-01T04:54:17.444Z,1018.27
2016-12-01T04:55:32.260Z,1018.21
2016-12-01T04:56:45.829Z,1018.25
2016-12-01T04:57:58.900Z,1018.24
2016-12-01T04:59:14.065Z,1018.26
2016-12-01T05:00:28.949Z,1018.2
2016-12-01T05:01:43.425Z,1018.21
2016-12-01T05:02:59.347Z,1018.18
2016-12-01T05:04:15.100Z,1018.09
2016-12-01T05:05:29.697Z,1018.11
2016-12-01T05:06:44.330Z,1018.15
2016-12-01T05:07:57.550Z,1018.09
2016-12-01T05:09:13.598Z,1018.11
2016-12-01T05:10:29.983Z,1018.08
2016-12-01T05:11:46.324Z,1018.07
2016-12-01T05:13:01.955Z,1018.09
2016-12-01T05:14:16.730Z,1018.03
2016-12-01T05:15:28.425Z,1018.09
2016-12-01T05:16:43.371Z,1018.14
2016-12-01T05:17:57.580Z,1018.19
2016-12-01T05:19:12.629Z,1018.17
2016-12-01T05:20:27.315Z,1018.2
2016-12-01T05:21:43.053Z,1018.19
2016-12-01T05:22:56.534Z,1018.2
2016-12-01T05:24:13.235Z,1018.24
2016-12-01T05:25:27.922Z,1018.24
2016-12-01T05:26:41.151Z,1018.26
2016-12-01T05:27:55.985Z,1018.17
2016-12-01T05:29:11.467Z,1018.31
2016-12-01T05:30:26.105Z,1018.3
2016-12-01T05:31:42.606Z,1018.32
2016-12-01T05:32:57.537Z,1018.39
2016-12-01T05:34:13.999Z,1018.38
2016-12-01T05:35:30.992Z,1018.41
2016-12-01T05:36:46.479Z,1018.35
2016-12-01T05:38:00.514Z,1018.47
2016-12-01T05:39:15.471Z,1018.44
2016-12-01T05:40:28.611Z,1018.42
2016-12-01T05:41:43.364Z,1018.43
2016-12-01T05:42:59.310Z,1018.39
2016-12-01T05:44:15.074Z,1018.38
2016-12-01T05:45:31.771Z,1018.31
2016-12-01T05:46:44.584Z,1018.34
2016-12-01T05:47:57.744Z,1018.35
2016-12-01T05:49:11.116Z,1018.39
2016-12-01T05:50:26.942Z,1018.4
2016-12-01T05:51:42.995Z,1018.28
2016-12-01T05:52:58.484Z,1018.28
2016-12-01T05:54:13.319Z,1018.23
2016-12-01T05:55:29.845Z,1018.18
2016-12-01T05:56:45.580Z,1018.24
2016-12-01T05:58:00.593Z,1018.3
2016-12-01T05:59:15.942Z,1018.26
2016-12-01T06:00:31.412Z,1018.24
2016-12-01T06:01:45.501Z,1018.24
2016-12-01T06:02:59.373Z,1018.32
2016-12-01T06:04:15.430Z,1018.16
2016-12-01T06:05:30.198Z,1018.13
2016-12-01T06:06:45.437Z,1018.07
2016-12-01T06:07:59.795Z,1018.07
2016-12-01T06:09:15.833Z,1018.01
2016-12-01T06:10:32.195Z,1018.1
2016-12-01T06:11:45.343Z,1018.03
2016-12-01T06:13:02.140Z,1018
2016-12-01T06:14:17.687Z,1018
2016-12-01T06:15:29.471Z,1018.01
2016-12-01T06:16:44.845Z,1017.97
2016-12-01T06:17:59.545Z,1017.97
2016-12-01T06:19:15.648Z,1017.94
2016-12-01T06:20:30.285Z,1017.93
2016-12-01T06:21:46.054Z,1017.93
2016-12-01T06:23:01.725Z,1017.96
2016-12-01T06:24:18.051Z,1017.94
2016-12-01T06:25:33.531Z,1017.9
2016-12-01T06:26:49.456Z,1017.96
2016-12-01T06:28:05.371Z,1017.92
2016-12-01T06:29:21.859Z,1017.95
2016-12-01T06:30:38.008Z,1017.94
2016-12-01T06:31:54.293Z,1017.96
2016-12-01T06:33:10.612Z,1017.97
2016-12-01T06:34:25.383Z,1017.91
2016-12-01T06:35:40.082Z,1017.91
2016-12-01T06:36:56.783Z,1017.93
2016-12-01T06:38:12.149Z,1017.86
2016-12-01T06:39:28.441Z,1017.88
2016-12-01T06:40:44.860Z,1017.89
2016-12-01T06:42:01.063Z,1017.98
2016-12-01T06:43:16.977Z,1017.99
2016-12-01T06:44:32.771Z,1018
2016-12-01T06:45:47.435Z,1017.92
2016-12-01T06:47:00.315Z,1017.94
2016-12-01T06:48:15.013Z,1017.9
2016-12-01T06:49:30.832Z,1017.88
2016-12-01T06:50:45.688Z,1017.88
2016-12-01T06:52:01.863Z,1017.8
2016-12-01T06:53:16.707Z,1017.79
2016-12-01T06:54:32.594Z,1017.76
2016-12-01T06:55:47.548Z,1017.78
2016-12-01T06:57:03.843Z,1017.76
2016-12-01T06:58:18.691Z,1017.8
2016-12-01T06:59:34.960Z,1017.76
2016-12-01T07:00:51.331Z,1017.82
2016-12-01T07:02:04.887Z,1017.88
2016-12-01T07:03:21.627Z,1017.83
2016-12-01T07:04:36.065Z,1017.84
2016-12-01T07:05:51.827Z,1017.86
2016-12-01T07:07:07.044Z,1017.86
2016-12-01T07:08:22.984Z,1017.88
2016-12-01T07:09:37.434Z,1017.84
2016-12-01T07:10:53.556Z,1017.86
2016-12-01T07:12:09.512Z,1017.81
2016-12-01T07:13:25.593Z,1017.84
2016-12-01T07:14:40.512Z,1017.86
2016-12-01T07:15:56.825Z,1017.84
2016-12-01T07:17:10.196Z,1017.85
2016-12-01T07:18:26.749Z,1017.89
2016-12-01T07:19:42.832Z,1017.91
2016-12-01T07:20:59.511Z,1017.88
2016-12-01T07:22:15.263Z,1017.84
2016-12-01T07:23:28.537Z,1017.91
2016-12-01T07:24:44.182Z,1017.88
2016-12-01T07:26:00.323Z,1017.85
2016-12-01T07:27:13.342Z,1017.86
2016-12-01T07:28:25.517Z,1017.95
2016-12-01T07:29:41.017Z,1018.01
2016-12-01T07:30:56.763Z,1018.01
2016-12-01T07:32:09.955Z,1018.04
2016-12-01T07:33:25.227Z,1018.03
2016-12-01T07:34:40.254Z,1018.03
2016-12-01T07:35:54.693Z,1017.94
2016-12-01T07:37:09.181Z,1017.99
2016-12-01T07:38:25.323Z,1017.99
2016-12-01T07:39:38.537Z,1017.96
2016-12-01T07:40:54.738Z,1018.02
2016-12-01T07:42:09.179Z,1018.02
2016-12-01T07:43:24.696Z,1018.09
2016-12-01T07:44:41.487Z,1018
2016-12-01T07:45:58.064Z,1018.08
2016-12-01T07:47:11.291Z,1018.17
2016-12-01T07:48:25.323Z,1018.12
2016-12-01T07:49:38.523Z,1018.15
2016-12-01T07:50:54.513Z,1018.14
2016-12-01T07:52:08.910Z,1018.06
2016-12-01T07:53:24.584Z,1018.02
2016-12-01T07:54:38.078Z,1017.98
2016-12-01T07:55:54.854Z,1017.92
2016-12-01T07:57:10.181Z,1017.89
2016-12-01T07:58:23.007Z,1017.91
2016-12-01T07:59:37.875Z,1017.91
2016-12-01T08:00:50.972Z,1017.95
2016-12-01T08:02:06.650Z,1017.88
2016-12-01T08:03:23.179Z,1017.87
2016-12-01T08:04:39.549Z,1017.83
2016-12-01T08:05:54.244Z,1017.85
2016-12-01T08:07:10.953Z,1017.76
2016-12-01T08:08:24.271Z,1017.77
2016-12-01T08:09:40.009Z,1017.78
2016-12-01T08:10:56.470Z,1017.74
2016-12-01T08:12:11.448Z,1017.71
2016-12-01T08:13:26.547Z,1017.78
2016-12-01T08:14:41.638Z,1017.7
2016-12-01T08:15:55.884Z,1017.74
2016-12-01T08:17:12.745Z,1017.78
2016-12-01T08:18:29.034Z,1017.67
2016-12-01T08:19:43.342Z,1017.83
2016-12-01T08:20:57.987Z,1017.92
2016-12-01T08:22:14.311Z,1017.85
2016-12-01T08:23:28.942Z,1017.81
2016-12-01T08:24:44.360Z,1017.75
2016-12-01T08:25:59.507Z,1017.71
2016-12-01T08:27:15.556Z,1017.66
2016-12-01T08:28:30.155Z,1017.53
2016-12-01T08:29:46.608Z,1017.59
2016-12-01T08:31:03.084Z,1017.67
2016-12-01T08:32:19.776Z,1017.69
2016-12-01T08:33:33.133Z,1017.64
2016-12-01T08:34:47.904Z,1017.6
2016-12-01T08:36:01.178Z,1017.6
2016-12-01T08:37:17.780Z,1017.54
2016-12-01T08:38:34.088Z,1017.51
2016-12-01T08:39:48.658Z,1017.46
2016-12-01T08:41:02.468Z,1017.38
2016-12-01T08:42:18.753Z,1017.42
2016-12-01T08:43:33.110Z,1017.41
2016-12-01T08:44:49.521Z,1017.33
2016-12-01T08:46:05.964Z,1017.28
2016-12-01T08:47:18.306Z,1017.23
2016-12-01T08:48:32.518Z,1017.2
2016-12-01T08:49:47.769Z,1017.23
2016-12-01T08:51:03.757Z,1017.16
2016-12-01T08:52:17.967Z,1017.18
2016-12-01T08:53:33.238Z,1017.2
2016-12-01T08:54:49.564Z,1017.2
2016-12-01T08:56:05.874Z,1017.31
2016-12-01T08:57:18.843Z,1017.34
2016-12-01T08:58:35.270Z,1017.32
2016-12-01T08:59:51.454Z,1017.41
2016-12-01T09:01:06.313Z,1017.4
2016-12-01T09:02:22.799Z,1017.41
2016-12-01T09:03:38.477Z,1017.38
2016-12-01T09:04:53.090Z,1017.33
2016-12-01T09:06:09.142Z,1017.4
2016-12-01T09:07:25.318Z,1017.43
2016-12-01T09:08:39.997Z,1017.42
2016-12-01T09:09:56.304Z,1017.44
2016-12-01T09:11:11.489Z,1017.41
2016-12-01T09:12:24.848Z,1017.42
2016-12-01T09:13:38.407Z,1017.48
2016-12-01T09:14:55.249Z,1017.45
2016-12-01T09:16:10.760Z,1017.41
2016-12-01T09:17:25.345Z,1017.48
2016-12-01T09:18:39.726Z,1017.46
2016-12-01T09:19:55.628Z,1017.4
2016-12-01T09:21:11.671Z,1017.44
2016-12-01T09:22:27.318Z,1017.46
2016-12-01T09:23:42.666Z,1017.41
2016-12-01T09:24:57.583Z,1017.43
2016-12-01T09:26:13.240Z,1017.4
2016-12-01T09:27:26.703Z,1017.36
2016-12-01T09:28:41.812Z,1017.44
2016-12-01T09:29:58.142Z,1017.44
2016-12-01T09:31:12.751Z,1017.46
2016-12-01T09:32:25.945Z,1017.41
2016-12-01T09:33:40.547Z,1017.41
2016-12-01T09:34:53.862Z,1017.45
2016-12-01T09:36:08.471Z,1017.47
2016-12-01T09:37:24.593Z,1017.42
2016-12-01T09:38:40.277Z,1017.51
2016-12-01T09:39:56.432Z,1017.51
2016-12-01T09:41:12.427Z,1017.5
2016-12-01T09:42:25.909Z,1017.54
2016-12-01T09:43:37.626Z,1017.54
2016-12-01T09:44:51.104Z,1017.58
2016-12-01T09:46:07.513Z,1017.63
2016-12-01T09:47:24.042Z,1017.62
2016-12-01T09:48:40.364Z,1017.69
2016-12-01T09:49:54.824Z,1017.7
2016-12-01T09:51:11.434Z,1017.64
2016-12-01T09:52:26.531Z,1017.66
2016-12-01T09:53:41.468Z,1017.65
2016-12-01T09:54:57.954Z,1017.66
2016-12-01T09:56:12.483Z,1017.6
2016-12-01T09:57:26.808Z,1017.63
2016-12-01T09:58:43.148Z,1017.64
2016-12-01T09:59:59.772Z,1017.58
2016-12-01T10:01:16.726Z,1017.57
2016-12-01T10:02:31.590Z,1017.65
2016-12-01T10:03:46.105Z,1017.66
2016-12-01T10:05:02.119Z,1017.73
2016-12-01T10:06:18.546Z,1017.73
2016-12-01T10:07:35.106Z,1017.69
2016-12-01T10:08:50.655Z,1017.66
2016-12-01T10:10:05.759Z,1017.62
2016-12-01T10:11:20.197Z,1017.61
2016-12-01T10:12:34.884Z,1017.6
2016-12-01T10:13:51.295Z,1017.62
2016-12-01T10:15:07.660Z,1017.56
2016-12-01T10:16:22.773Z,1017.51
2016-12-01T10:17:39.781Z,1017.45
2016-12-01T10:18:56.511Z,1017.44
2016-12-01T10:20:12.978Z,1017.36
2016-12-01T10:21:28.256Z,1017.4
2016-12-01T10:22:41.938Z,1017.42
2016-12-01T10:23:57.908Z,1017.42
2016-12-01T10:25:13.812Z,1017.33
2016-12-01T10:26:28.436Z,1017.28
2016-12-01T10:27:43.430Z,1017.34
2016-12-01T10:28:57.091Z,1017.31
2016-12-01T10:30:11.941Z,1017.3
2016-12-01T10:31:25.902Z,1017.33
2016-12-01T10:32:39.408Z,1017.26
2016-12-01T10:33:54.852Z,1017.25
2016-12-01T10:35:08.487Z,1017.17
2016-12-01T10:36:25.044Z,1017.12
2016-12-01T10:37:39.751Z,1017.12
2016-12-01T10:38:53.212Z,1017.17
2016-12-01T10:40:09.305Z,1017.16
2016-12-01T10:41:25.855Z,1017.17
2016-12-01T10:42:41.350Z,1017.18
2016-12-01T10:43:55.910Z,1017.15
2016-12-01T10:45:12.855Z,1017.13
2016-12-01T10:46:27.717Z,1017.1
2016-12-01T10:47:41.600Z,1017.08
2016-12-01T10:48:53.649Z,1017.11
2016-12-01T10:50:08.410Z,1017.09
2016-12-01T10:51:21.767Z,1017.12
2016-12-01T10:52:35.568Z,1017.06
2016-12-01T10:53:50.515Z,1017.07
2016-12-01T10:55:04.170Z,1017.04
2016-12-01T10:56:20.503Z,1016.98
2016-12-01T10:57:36.557Z,1016.92
2016-12-01T10:58:51.499Z,1016.91
2016-12-01T11:00:07.184Z,1016.87
2016-12-01T11:01:22.454Z,1016.83
2016-12-01T11:02:38.503Z,1016.76
2016-12-01T11:03:54.000Z,1016.78
2016-12-01T11:05:08.838Z,1016.82
2016-12-01T11:06:22.504Z,1016.74
2016-12-01T11:07:38.409Z,1016.74
2016-12-01T11:08:54.984Z,1016.77
2016-12-01T11:10:08.457Z,1016.68
2016-12-01T11:11:23.220Z,1016.73
2016-12-01T11:12:38.895Z,1016.75
2016-12-01T11:13:55.030Z,1016.68
2016-12-01T11:15:11.170Z,1016.7
2016-12-01T11:16:25.877Z,1016.7
2016-12-01T11:17:37.845Z,1016.64
2016-12-01T11:18:53.510Z,1016.52
2016-12-01T11:20:07.245Z,1016.49
2016-12-01T11:21:21.576Z,1016.43
2016-12-01T11:22:36.563Z,1016.52
2016-12-01T11:23:51.437Z,1016.54
2016-12-01T11:25:07.789Z,1016.48
2016-12-01T11:26:22.430Z,1016.45
2016-12-01T11:27:38.371Z,1016.45
2016-12-01T11:28:53.099Z,1016.43
2016-12-01T11:30:09.158Z,1016.44
2016-12-01T11:31:24.132Z,1016.44
2016-12-01T11:32:40.599Z,1016.45
2016-12-01T11:33:55.378Z,1016.43
2016-12-01T11:35:11.703Z,1016.38
2016-12-01T11:36:26.959Z,1016.35
2016-12-01T11:37:40.651Z,1016.33
2016-12-01T11:38:57.518Z,1016.35
2016-12-01T11:40:13.819Z,1016.34
2016-12-01T11:41:28.975Z,1016.25
2016-12-01T11:42:45.174Z,1016.36
2016-12-01T11:44:01.575Z,1016.43
2016-12-01T11:45:18.128Z,1016.47
2016-12-01T11:46:31.771Z,1016.4
2016-12-01T11:47:44.928Z,1016.47
2016-12-01T11:49:00.807Z,1016.44
2016-12-01T11:50:16.299Z,1016.47
2016-12-01T11:51:29.367Z,1016.51
2016-12-01T11:52:45.682Z,1016.49
2016-12-01T11:54:00.443Z,1016.44
2016-12-01T11:55:12.301Z,1016.47
2016-12-01T11:56:27.515Z,1016.51
2016-12-01T11:57:42.399Z,1016.47
2016-12-01T11:58:59.019Z,1016.45
2016-12-01T12:00:15.978Z,1016.46
2016-12-01T12:01:31.523Z,1016.47
2016-12-01T12:02:48.085Z,1016.46
2016-12-01T12:04:03.182Z,1016.45
2016-12-01T12:05:16.935Z,1016.43
2016-12-01T12:06:30.115Z,1016.42
2016-12-01T12:07:44.572Z,1016.42
2016-12-01T12:08:59.506Z,1016.41
2016-12-01T12:10:15.821Z,1016.35
2016-12-01T12:11:30.509Z,1016.33
2016-12-01T12:12:46.749Z,1016.33
2016-12-01T12:14:00.969Z,1016.29
2016-12-01T12:15:15.682Z,1016.28
2016-12-01T12:16:32.388Z,1016.22
2016-12-01T12:17:47.445Z,1016.25
2016-12-01T12:19:00.674Z,1016.26
2016-12-01T12:20:17.115Z,1016.28
2016-12-01T12:21:29.131Z,1016.3
2016-12-01T12:22:44.481Z,1016.32
2016-12-01T12:23:59.964Z,1016.25
2016-12-01T12:25:14.939Z,1016.23
2016-12-01T12:26:26.873Z,1016.22
2016-12-01T12:27:41.562Z,1016.23
2016-12-01T12:28:58.071Z,1016.2
2016-12-01T12:30:13.710Z,1016.16
2016-12-01T12:31:30.009Z,1016.15
2016-12-01T12:32:43.540Z,1016.14
2016-12-01T12:33:57.950Z,1016.02
2016-12-01T12:35:13.816Z,1015.99
2016-12-01T12:36:29.323Z,1015.95
2016-12-01T12:37:45.591Z,1015.9
2016-12-01T12:39:02.165Z,1015.97
2016-12-01T12:40:16.975Z,1015.89
2016-12-01T12:41:31.704Z,1015.94
2016-12-01T12:42:48.116Z,1015.93
2016-12-01T12:44:04.179Z,1015.98
2016-12-01T12:45:17.863Z,1015.9
2016-12-01T12:46:32.686Z,1015.89
2016-12-01T12:47:46.318Z,1015.87
2016-12-01T12:49:02.356Z,1015.94
2016-12-01T12:50:17.139Z,1015.88
2016-12-01T12:51:30.383Z,1015.91
2016-12-01T12:52:44.652Z,1015.86
2016-12-01T12:53:59.429Z,1015.8
2016-12-01T12:55:13.159Z,1015.73
2016-12-01T12:56:28.285Z,1015.79
2016-12-01T12:57:44.288Z,1015.82
2016-12-01T12:59:00.427Z,1015.81
2016-12-01T13:00:15.967Z,1015.8
2016-12-01T13:01:33.038Z,1015.8
2016-12-01T13:02:48.088Z,1015.74
2016-12-01T13:04:04.497Z,1015.65
2016-12-01T13:05:19.602Z,1015.65
2016-12-01T13:06:34.331Z,1015.64
2016-12-01T13:07:51.174Z,1015.55
2016-12-01T13:09:06.223Z,1015.59
2016-12-01T13:10:21.024Z,1015.53
2016-12-01T13:11:37.728Z,1015.62
2016-12-01T13:12:53.797Z,1015.62
2016-12-01T13:14:08.016Z,1015.57
2016-12-01T13:15:24.389Z,1015.59
2016-12-01T13:16:40.249Z,1015.57
2016-12-01T13:17:55.739Z,1015.56
2016-12-01T13:19:10.931Z,1015.52
